createdAt,value
2022-07-29T00:00:13.723Z,101270.38
2022-07-29T00:05:26.613Z,101273.81
2022-07-29T00:10:35.003Z,101263.38
2022-07-29T00:15:44.016Z,101243.34
2022-07-29T00:20:51.721Z,101250.84
2022-07-29T00:26:00.636Z,101257.16
2022-07-29T00:36:44.655Z,101247.44
2022-07-29T00:41:50.889Z,101241.84
2022-07-29T00:47:07.333Z,101233.03
2022-07-29T00:57:52.997Z,101225.28
2022-07-29T01:05:48.131Z,101221.94
2022-07-29T01:11:01.857Z,101220.31
2022-07-29T01:16:16.307Z,101217.53
2022-07-29T01:21:57.839Z,101211.13
2022-07-29T01:27:31.848Z,101203.13
2022-07-29T01:32:42.613Z,101197.91
2022-07-29T01:38:10.281Z,101185.09
2022-07-29T01:43:43.954Z,101178.22
2022-07-29T01:49:06.191Z,101177.31
2022-07-29T01:54:47.421Z,101175.72
2022-07-29T01:59:55.191Z,101166.06
2022-07-29T02:05:17.387Z,101172.47
2022-07-29T02:10:26.694Z,101170.03
2022-07-29T02:15:40.139Z,101167.13
2022-07-29T02:20:55.964Z,101167.41
2022-07-29T02:26:18.830Z,101171.19
2022-07-29T02:31:50.584Z,101166.25
2022-07-29T02:36:58.667Z,101180.56
2022-07-29T02:42:11.714Z,101169.22
2022-07-29T02:47:45.058Z,101175.78
2022-07-29T02:53:27.980Z,101173.28
2022-07-29T03:07:27.998Z,101179.13
2022-07-29T03:12:31.320Z,101185.06
2022-07-29T03:18:06.887Z,101184.97
2022-07-29T03:23:12.149Z,101180.53
2022-07-29T03:28:14.172Z,101178.91
2022-07-29T03:33:18.246Z,101180.53
2022-07-29T03:38:21.667Z,101180.19
2022-07-29T03:43:27.019Z,101175.78
2022-07-29T03:48:33.034Z,101175.78
2022-07-29T03:53:36.559Z,101175.31
2022-07-29T03:58:39.984Z,101173.69
2022-07-29T04:03:42.044Z,101165.22
2022-07-29T04:08:44.174Z,101158.81
2022-07-29T04:13:46.183Z,101158.38
2022-07-29T04:18:48.385Z,101157.09
2022-07-29T04:23:53.689Z,101168.63
2022-07-29T04:28:56.038Z,101169.00
2022-07-29T04:33:58.643Z,101181.69
2022-07-29T04:39:02.037Z,101185.53
2022-07-29T04:44:07.217Z,101197.41
2022-07-29T04:49:09.713Z,101200.47
2022-07-29T04:54:11.798Z,101201.13
2022-07-29T04:59:13.803Z,101210.66
2022-07-29T05:04:16.132Z,101222.44
2022-07-29T05:09:18.537Z,101221.53
2022-07-29T05:14:20.752Z,101230.25
2022-07-29T05:19:22.918Z,101237.91
2022-07-29T05:24:24.927Z,101249.50
2022-07-29T05:29:43.122Z,101245.75
2022-07-29T05:34:50.387Z,101241.50
2022-07-29T05:39:56.595Z,101259.50
2022-07-29T05:44:59.457Z,101262.38
2022-07-29T05:50:01.570Z,101262.13
2022-07-29T05:55:05.424Z,101261.53
2022-07-29T06:00:08.465Z,101264.50
2022-07-29T06:05:17.252Z,101275.91
2022-07-29T06:10:20.171Z,101274.94
2022-07-29T06:15:25.975Z,101276.19
2022-07-29T06:20:32.274Z,101277.09
2022-07-29T06:25:36.550Z,101280.44
2022-07-29T06:30:39.219Z,101290.53
2022-07-29T06:35:43.191Z,101278.38
2022-07-29T06:41:10.715Z,101277.41
2022-07-29T06:46:15.746Z,101289.22
2022-07-29T06:51:24.157Z,101287.44
2022-07-29T06:56:26.305Z,101301.16
2022-07-29T07:01:28.403Z,101298.91
2022-07-29T07:06:30.682Z,101307.31
2022-07-29T07:11:33.029Z,101298.09
2022-07-29T07:16:38.890Z,101301.31
2022-07-29T07:21:41.518Z,101296.16
2022-07-29T07:26:43.605Z,101300.63
2022-07-29T07:31:49.419Z,101307.13
2022-07-29T07:36:51.551Z,101305.97
2022-07-29T07:41:53.840Z,101309.34
2022-07-29T07:46:59.919Z,101311.34
2022-07-29T07:52:17.900Z,101320.38
2022-07-29T07:57:20.121Z,101316.63
2022-07-29T08:02:25.600Z,101318.28
2022-07-29T08:07:27.631Z,101322.09
2022-07-29T08:12:29.747Z,101317.78
2022-07-29T08:17:37.008Z,101308.38
2022-07-29T08:22:39.044Z,101296.78
2022-07-29T08:27:43.825Z,101311.19
2022-07-29T08:32:54.827Z,101328.44
2022-07-29T08:37:58.035Z,101333.97
2022-07-29T08:43:08.770Z,101341.09
2022-07-29T08:48:10.750Z,101340.97
2022-07-29T08:53:15.345Z,101337.72
2022-07-29T08:58:22.900Z,101334.88
2022-07-29T09:03:32.141Z,101356.84
2022-07-29T09:08:34.594Z,101353.06
2022-07-29T09:13:36.920Z,101351.38
2022-07-29T09:18:45.364Z,101349.81
2022-07-29T09:24:08.879Z,101365.50
2022-07-29T09:29:18.117Z,101373.34
2022-07-29T09:34:27.995Z,101368.88
2022-07-29T09:39:41.201Z,101369.38
2022-07-29T09:44:46.533Z,101370.47
2022-07-29T09:50:07.332Z,101371.41
2022-07-29T09:55:13.588Z,101370.09
2022-07-29T10:00:21.584Z,101365.53
2022-07-29T10:05:26.069Z,101361.28
2022-07-29T10:10:34.875Z,101355.44
2022-07-29T10:15:40.189Z,101355.59
2022-07-29T10:20:42.728Z,101350.00
2022-07-29T10:25:52.505Z,101355.59
2022-07-29T10:31:05.327Z,101360.00
2022-07-29T10:36:40.232Z,101354.09
2022-07-29T10:54:01.302Z,101363.41
2022-07-29T10:59:36.357Z,101366.69
2022-07-29T11:04:44.527Z,101366.91
2022-07-29T11:10:12.848Z,101379.47
2022-07-29T11:15:22.410Z,101366.28
2022-07-29T11:20:40.735Z,101374.00
2022-07-29T11:25:50.616Z,101373.81
2022-07-29T11:30:56.341Z,101389.59
2022-07-29T11:36:16.872Z,101385.34
2022-07-29T11:41:19.147Z,101394.81
2022-07-29T11:46:54.743Z,101396.38
2022-07-29T11:52:02.861Z,101395.97
2022-07-29T11:57:08.548Z,101394.91
2022-07-29T12:02:37.231Z,101399.06
2022-07-29T12:07:35.599Z,101400.88
2022-07-29T12:12:39.796Z,101399.47
2022-07-29T12:17:42.324Z,101399.34
2022-07-29T12:22:45.379Z,101405.91
2022-07-29T12:27:48.594Z,101413.41
2022-07-29T12:32:51.436Z,101425.53
2022-07-29T12:38:00.236Z,101426.03
2022-07-29T12:43:12.760Z,101428.34
2022-07-29T12:48:15.870Z,101436.53
2022-07-29T12:53:17.960Z,101427.44
2022-07-29T12:58:31.182Z,101434.75
2022-07-29T13:03:56.886Z,101432.78
2022-07-29T13:09:07.692Z,101437.53
2022-07-29T13:14:13.315Z,101440.84
2022-07-29T13:19:15.343Z,101440.66
2022-07-29T13:24:19.910Z,101438.03
2022-07-29T13:29:31.748Z,101446.00
2022-07-29T13:34:34.058Z,101439.03
2022-07-29T13:39:36.236Z,101428.88
2022-07-29T13:44:38.392Z,101440.34
2022-07-29T13:49:40.555Z,101438.72
2022-07-29T13:54:45.921Z,101431.91
2022-07-29T13:59:53.451Z,101426.13
2022-07-29T14:04:56.446Z,101443.44
2022-07-29T14:09:58.743Z,101437.97
2022-07-29T14:15:01.185Z,101432.22
2022-07-29T14:20:04.007Z,101416.41
2022-07-29T14:25:14.722Z,101419.00
2022-07-29T14:30:17.503Z,101410.69
2022-07-29T14:35:20.382Z,101424.72
2022-07-29T14:40:22.564Z,101419.06
2022-07-29T14:45:25.389Z,101407.88
2022-07-29T14:50:31.207Z,101407.47
2022-07-29T14:55:34.307Z,101393.25
2022-07-29T15:00:37.992Z,101395.16
2022-07-29T15:05:40.220Z,101389.91
2022-07-29T15:10:42.390Z,101388.66
2022-07-29T15:15:45.564Z,101384.53
2022-07-29T15:20:47.818Z,101381.63
2022-07-29T15:25:54.916Z,101401.13
2022-07-29T15:30:57.225Z,101408.75
2022-07-29T15:35:59.341Z,101385.50
2022-07-29T15:41:01.684Z,101363.00
2022-07-29T15:46:22.193Z,101376.59
2022-07-29T15:51:24.356Z,101423.00
2022-07-29T15:56:26.719Z,101468.63
2022-07-29T16:01:28.813Z,101488.34
2022-07-29T16:06:31.011Z,101481.84
2022-07-29T16:11:33.654Z,101473.75
2022-07-29T16:34:11.250Z,101496.31
2022-07-29T16:57:15.452Z,101374.47
2022-07-29T17:02:17.793Z,101375.34
2022-07-29T17:07:20.903Z,101370.22
2022-07-29T17:29:39.547Z,101375.81
2022-07-29T17:34:42.735Z,101386.44
2022-07-29T17:39:45.073Z,101411.41
2022-07-29T17:44:47.283Z,101418.25
2022-07-29T17:49:49.977Z,101411.47
2022-07-29T17:54:52.154Z,101420.19
2022-07-29T17:59:54.307Z,101435.31
2022-07-29T18:04:59.366Z,101440.72
2022-07-29T18:10:08.196Z,101438.03
2022-07-29T18:15:13.191Z,101434.28
2022-07-29T18:20:24.144Z,101429.69
2022-07-29T18:25:26.722Z,101431.97
2022-07-29T18:30:30.303Z,101445.53
2022-07-29T18:35:33.302Z,101445.09
2022-07-29T18:40:35.559Z,101443.00
2022-07-29T18:45:37.783Z,101460.09
2022-07-29T18:50:42.351Z,101475.66
2022-07-29T18:55:45.009Z,101488.38
2022-07-29T19:00:47.167Z,101484.34
2022-07-29T19:05:49.608Z,101469.06
2022-07-29T19:10:51.671Z,101475.41
2022-07-29T19:15:54.047Z,101494.56
2022-07-29T19:20:56.407Z,101503.66
2022-07-29T19:25:59.623Z,101518.38
2022-07-29T19:31:02.363Z,101520.72
2022-07-29T19:36:04.661Z,101527.06
2022-07-29T19:41:07.235Z,101534.56
2022-07-29T19:46:09.318Z,101526.72
2022-07-29T19:51:11.377Z,101529.59
2022-07-29T19:56:13.475Z,101529.41
2022-07-29T20:01:17.567Z,101526.16
2022-07-29T20:06:21.604Z,101552.31
2022-07-29T20:11:32.453Z,101573.16
2022-07-29T20:16:34.450Z,101562.69
2022-07-29T20:21:42.389Z,101578.19
2022-07-29T20:26:44.479Z,101579.50
2022-07-29T20:31:56.148Z,101588.25
2022-07-29T20:37:00.528Z,101590.31
2022-07-29T20:42:02.778Z,101584.72
2022-07-29T20:47:04.882Z,101594.19
2022-07-29T20:52:07.115Z,101594.66
2022-07-29T20:57:09.498Z,101609.56
2022-07-29T21:02:11.675Z,101604.78
2022-07-29T21:07:13.711Z,101598.13
2022-07-29T21:12:15.671Z,101608.97
2022-07-29T21:17:21.215Z,101610.50
2022-07-29T21:22:24.665Z,101604.09
2022-07-29T21:27:45.598Z,101612.47
2022-07-29T21:32:50.938Z,101607.25
2022-07-29T21:37:55.604Z,101615.16
2022-07-29T21:42:57.904Z,101607.00
2022-07-29T21:48:00.112Z,101612.03
2022-07-29T21:53:02.283Z,101604.47
2022-07-29T21:58:06.722Z,101613.66
2022-07-29T22:03:09.031Z,101611.22
2022-07-29T22:08:11.263Z,101609.59
2022-07-29T22:13:21.549Z,101619.53
2022-07-29T22:18:23.499Z,101627.09
2022-07-29T22:23:25.609Z,101627.91
2022-07-29T22:28:27.702Z,101628.97
2022-07-29T22:33:29.669Z,101624.09
2022-07-29T22:38:31.759Z,101629.59
2022-07-29T22:43:39.665Z,101633.44
2022-07-29T22:48:41.731Z,101647.78
2022-07-29T22:53:48.328Z,101662.91
2022-07-29T22:58:53.463Z,101658.13
2022-07-29T23:03:55.631Z,101651.28
2022-07-29T23:08:57.710Z,101653.16
2022-07-29T23:13:59.713Z,101647.00
2022-07-29T23:19:01.791Z,101643.38
2022-07-29T23:24:04.171Z,101636.16
2022-07-29T23:29:07.910Z,101634.53
2022-07-29T23:34:13.128Z,101637.69
2022-07-29T23:39:15.314Z,101630.00
2022-07-29T23:44:17.296Z,101627.22
2022-07-29T23:49:19.356Z,101622.34
2022-07-29T23:54:21.571Z,101626.28
2022-07-29T23:59:24.794Z,101618.25
